Time;durP1;ratioP1;P1;durP2;ratioP2;P2;SDS_P1;SDS_P2;PMS_P1;PMS_P2;Temp;Humidity;BMP_temperature;BMP_pressure;BME280_temperature;BME280_humidity;BME280_pressure;Samples;Min_cycle;Max_cycle;Signal;HPM_P1;HPM_P2
2022/04/30 00:00:00;;;;;;;49.57;25.07;;;;;;;;;;5049564;28;20441;-75
2022/04/30 00:02:40;;;;;;;49.37;24.93;;;;;;;;;;5065666;28;20432;-75
2022/04/30 00:05:09;;;;;;;48.47;24.37;;;;;;;;;;5038674;28;20460;-75
2022/04/30 00:08:25;;;;;;;44.77;23.87;;;;;;;;;;5040994;28;21006;-75
2022/04/30 00:11:31;;;;;;;51.47;24.50;;;;;;;;;;5054484;28;20468;-75
2022/04/30 00:14:37;;;;;;;49.03;24.63;;;;;;;;;;5049453;28;21167;-75
2022/04/30 00:17:29;;;;;;;48.30;24.67;;;;;;;;;;5032413;28;20467;-75
2022/04/30 00:20:17;;;;;;;46.90;23.33;;;;;;;;;;5026669;28;20448;-75
2022/04/30 00:23:22;;;;;;;44.30;23.73;;;;;;;;;;5053945;28;21005;-75
2022/04/30 00:26:23;;;;;;;45.57;22.37;;;;;;;;;;5049133;28;20441;-74
2022/04/30 00:29:29;;;;;;;49.37;23.27;;;;;;;;;;5053962;28;20512;-76
2022/04/30 00:32:29;;;;;;;44.23;22.93;;;;;;;;;;5059566;28;20456;-74
2022/04/30 00:35:05;;;;;;;47.40;22.83;;;;;;;;;;5043963;28;20536;-76
2022/04/30 00:37:32;;;;;;;52.70;25.00;;;;;;;;;;5011770;28;20450;-75
2022/04/30 00:40:06;;;;;;;53.23;25.27;;;;;;;;;;5064098;28;20440;-76
2022/04/30 00:43:10;;;;;;;51.20;25.23;;;;;;;;;;5027181;28;20925;-75
2022/04/30 00:46:01;;;;;;;47.60;24.27;;;;;;;;;;5027659;28;20457;-75
2022/04/30 00:49:13;;;;;;;45.17;22.00;;;;;;;;;;4969648;28;20484;-75
2022/04/30 00:51:56;;;;;;;46.83;22.03;;;;;;;;;;4968204;28;20457;-75
2022/04/30 00:54:23;;;;;;;47.13;22.73;;;;;;;;;;4934581;29;20528;-75
2022/04/30 00:56:52;;;;;;;48.03;24.00;;;;;;;;;;4935104;29;20445;-75
2022/04/30 00:59:22;;;;;;;49.27;24.37;;;;;;;;;;4966468;28;20503;-75
2022/04/30 01:02:28;;;;;;;44.73;22.07;;;;;;;;;;4969230;28;20444;-75
2022/04/30 01:05:34;;;;;;;47.50;22.20;;;;;;;;;;4964396;28;20868;-76
2022/04/30 01:08:40;;;;;;;49.37;22.40;;;;;;;;;;4954218;28;20472;-76
2022/04/30 01:11:24;;;;;;;47.80;22.57;;;;;;;;;;4988515;28;20528;-76
2022/04/30 01:13:54;;;;;;;45.60;22.50;;;;;;;;;;4981711;28;20835;-76
2022/04/30 01:16:36;;;;;;;43.33;21.07;;;;;;;;;;4954364;28;20464;-76
2022/04/30 01:19:03;;;;;;;46.27;21.83;;;;;;;;;;4969411;28;20525;-75
2022/04/30 01:21:30;;;;;;;39.27;21.23;;;;;;;;;;4988366;28;20540;-76
2022/04/30 01:24:24;;;;;;;43.13;21.67;;;;;;;;;;4988070;28;20459;-75
2022/04/30 01:30:38;;;;;;;44.33;21.20;;;;;;;;;;4992415;28;20487;-75
2022/04/30 01:40:04;;;;;;;41.27;21.10;;;;;;;;;;4990119;28;20463;-76
2022/04/30 01:42:36;;;;;;;46.40;22.73;;;;;;;;;;4976981;28;20919;-76
2022/04/30 01:45:44;;;;;;;41.20;19.77;;;;;;;;;;4961160;28;20456;-76
2022/04/30 01:48:55;;;;;;;40.03;20.23;;;;;;;;;;4987604;28;20526;-76
2022/04/30 01:51:44;;;;;;;44.20;21.60;;;;;;;;;;4992905;28;20456;-75
2022/04/30 01:54:34;;;;;;;39.57;19.87;;;;;;;;;;5011658;28;20453;-75
2022/04/30 01:57:25;;;;;;;40.83;21.40;;;;;;;;;;5028526;28;20450;-75
2022/04/30 02:00:53;;;;;;;42.70;19.53;;;;;;;;;;5034590;28;20953;-75
2022/04/30 02:03:20;;;;;;;44.40;21.20;;;;;;;;;;5050650;28;20457;-75
2022/04/30 02:06:46;;;;;;;41.87;20.90;;;;;;;;;;5027219;28;20500;-75
2022/04/30 02:09:38;;;;;;;38.40;18.90;;;;;;;;;;5049299;28;21367;-75
2022/04/30 02:13:19;;;;;;;39.97;19.30;;;;;;;;;;5037405;28;20720;-75
2022/04/30 02:16:31;;;;;;;37.67;19.20;;;;;;;;;;5035483;28;20437;-75
2022/04/30 02:23:33;;;;;;;48.67;21.33;;;;;;;;;;5049168;28;20487;-75
2022/04/30 02:27:07;;;;;;;39.13;19.40;;;;;;;;;;5026610;28;20434;-76
2022/04/30 02:30:42;;;;;;;40.77;20.27;;;;;;;;;;5032489;28;20471;-75
2022/04/30 02:34:08;;;;;;;38.93;19.53;;;;;;;;;;5045785;28;20456;-76
2022/04/30 02:36:55;;;;;;;40.50;19.53;;;;;;;;;;5009762;28;20449;-75
2022/04/30 02:39:43;;;;;;;39.40;18.43;;;;;;;;;;5006392;28;20473;-76
2022/04/30 02:43:00;;;;;;;39.40;19.87;;;;;;;;;;5032610;28;21004;-75
2022/04/30 02:49:25;;;;;;;34.83;18.90;;;;;;;;;;5056169;28;20585;-76
2022/04/30 02:52:28;;;;;;;40.03;19.60;;;;;;;;;;5056981;28;20533;-76
2022/04/30 02:56:43;;;;;;;36.93;18.97;;;;;;;;;;5037551;28;20520;-75
2022/04/30 03:00:24;;;;;;;31.23;17.83;;;;;;;;;;5031943;28;21016;-76
2022/04/30 03:04:35;;;;;;;32.13;16.17;;;;;;;;;;5031947;28;20507;-76
2022/04/30 03:07:48;;;;;;;33.33;17.43;;;;;;;;;;5046531;28;20449;-75
2022/04/30 03:11:04;;;;;;;32.57;17.67;;;;;;;;;;5023662;28;20896;-76
2022/04/30 03:14:10;;;;;;;31.90;16.90;;;;;;;;;;5033165;28;20464;-75
2022/04/30 03:24:18;;;;;;;34.00;17.93;;;;;;;;;;5024863;28;20430;-76
2022/04/30 03:27:49;;;;;;;42.80;20.10;;;;;;;;;;5027355;28;20490;-76
2022/04/30 03:30:41;;;;;;;33.67;18.33;;;;;;;;;;5036291;28;20491;-75
2022/04/30 03:33:54;;;;;;;37.90;19.57;;;;;;;;;;5051743;28;20448;-75
2022/04/30 03:37:03;;;;;;;38.50;19.57;;;;;;;;;;5048766;28;20486;-76
2022/04/30 03:40:39;;;;;;;40.87;19.47;;;;;;;;;;4970897;28;20447;-75
2022/04/30 03:47:20;;;;;;;36.63;18.10;;;;;;;;;;4984836;28;20458;-76
2022/04/30 03:49:50;;;;;;;37.17;19.47;;;;;;;;;;4986308;28;20493;-76
2022/04/30 03:53:29;;;;;;;34.73;18.37;;;;;;;;;;4982784;28;20504;-76
2022/04/30 03:56:00;;;;;;;35.83;19.30;;;;;;;;;;4985872;28;20514;-76
2022/04/30 03:58:28;;;;;;;37.13;19.17;;;;;;;;;;4970204;28;20459;-75
2022/04/30 04:01:29;;;;;;;35.23;19.30;;;;;;;;;;4970397;28;20431;-75
2022/04/30 04:04:42;;;;;;;38.80;19.83;;;;;;;;;;4986015;28;20711;-76
2022/04/30 04:07:18;;;;;;;37.67;19.73;;;;;;;;;;4985958;28;20461;-75
2022/04/30 04:10:10;;;;;;;36.10;19.63;;;;;;;;;;5001994;28;20480;-76
2022/04/30 04:19:13;;;;;;;31.53;18.17;;;;;;;;;;5016315;28;20457;-74
2022/04/30 04:21:41;;;;;;;31.03;18.40;;;;;;;;;;5045915;28;20455;-75
2022/04/30 04:27:08;;;;;;;29.23;18.37;;;;;;;;;;5033309;28;20448;-75
2022/04/30 04:29:35;;;;;;;29.93;18.30;;;;;;;;;;5029004;28;20487;-75
2022/04/30 04:32:02;;;;;;;32.90;17.97;;;;;;;;;;5046222;28;20453;-75
2022/04/30 04:34:29;;;;;;;30.37;18.50;;;;;;;;;;5046539;28;20579;-76
2022/04/30 04:36:56;;;;;;;37.97;21.70;;;;;;;;;;5028249;28;20547;-75
2022/04/30 04:39:23;;;;;;;40.57;22.70;;;;;;;;;;5029084;28;20452;-76
2022/04/30 04:41:50;;;;;;;37.73;21.23;;;;;;;;;;5029033;28;20468;-75
2022/04/30 04:44:21;;;;;;;42.07;21.43;;;;;;;;;;5028743;28;20453;-75
2022/04/30 04:46:48;;;;;;;39.10;21.67;;;;;;;;;;5066275;28;20464;-75
2022/04/30 04:49:15;;;;;;;42.40;21.80;;;;;;;;;;5050543;28;20517;-74
2022/04/30 04:51:42;;;;;;;40.57;22.97;;;;;;;;;;5050691;28;20456;-75
2022/04/30 04:54:11;;;;;;;41.17;22.47;;;;;;;;;;5049693;28;20445;-75
2022/04/30 04:56:38;;;;;;;39.63;21.70;;;;;;;;;;5065173;28;20522;-75
2022/04/30 04:59:06;;;;;;;38.13;22.27;;;;;;;;;;5061503;28;20427;-75
2022/04/30 05:01:33;;;;;;;39.07;21.67;;;;;;;;;;5071269;28;20463;-74
2022/04/30 05:04:00;;;;;;;35.73;21.30;;;;;;;;;;5052258;28;20815;-75
2022/04/30 05:06:28;;;;;;;42.03;21.83;;;;;;;;;;5052720;28;20537;-75
2022/04/30 05:08:56;;;;;;;33.97;20.87;;;;;;;;;;5052607;28;20197;-75
2022/04/30 05:11:23;;;;;;;33.93;20.47;;;;;;;;;;5069666;28;20182;-74
2022/04/30 05:13:50;;;;;;;29.80;18.50;;;;;;;;;;5069587;28;20193;-74
2022/04/30 05:16:17;;;;;;;36.23;20.33;;;;;;;;;;5051159;28;20502;-74
2022/04/30 05:18:43;;;;;;;36.20;21.03;;;;;;;;;;5069261;28;20217;-74
2022/04/30 05:21:10;;;;;;;33.47;19.40;;;;;;;;;;5067186;28;20279;-74
2022/04/30 05:23:51;;;;;;;32.33;19.00;;;;;;;;;;5068052;28;20256;-74
2022/04/30 05:26:18;;;;;;;31.13;18.73;;;;;;;;;;5051566;28;20241;-74
2022/04/30 05:28:44;;;;;;;28.60;17.83;;;;;;;;;;5068161;28;20232;-74
2022/04/30 05:31:11;;;;;;;29.50;18.77;;;;;;;;;;5069175;28;20217;-74
2022/04/30 05:33:39;;;;;;;32.73;17.83;;;;;;;;;;5051993;28;20222;-74
2022/04/30 05:36:06;;;;;;;33.40;18.67;;;;;;;;;;5051528;28;20214;-74
2022/04/30 05:38:35;;;;;;;37.80;19.80;;;;;;;;;;5068861;28;20616;-73
2022/04/30 05:41:02;;;;;;;32.00;20.07;;;;;;;;;;5067325;28;20252;-73
2022/04/30 05:43:29;;;;;;;27.63;17.13;;;;;;;;;;5068138;28;20951;-73
2022/04/30 05:45:55;;;;;;;24.37;15.83;;;;;;;;;;5043841;28;20476;-72
2022/04/30 05:48:22;;;;;;;25.27;15.07;;;;;;;;;;5067949;28;20476;-73
2022/04/30 05:50:51;;;;;;;26.43;15.50;;;;;;;;;;5067958;28;20491;-72
2022/04/30 05:53:17;;;;;;;30.17;17.07;;;;;;;;;;5047400;28;20509;-74
2022/04/30 05:55:44;;;;;;;32.90;18.60;;;;;;;;;;5064784;28;20484;-72
2022/04/30 05:58:11;;;;;;;30.10;18.10;;;;;;;;;;5050732;28;20456;-74
2022/04/30 06:00:38;;;;;;;23.00;13.17;;;;;;;;;;5068540;28;20436;-72
2022/04/30 06:03:05;;;;;;;21.37;11.23;;;;;;;;;;5050278;28;20877;-72
2022/04/30 06:05:32;;;;;;;19.03;11.43;;;;;;;;;;5067700;28;20476;-72
2022/04/30 06:07:59;;;;;;;16.83;11.33;;;;;;;;;;5055921;28;20452;-72
2022/04/30 06:10:26;;;;;;;22.90;13.13;;;;;;;;;;5050022;28;20484;-70
2022/04/30 06:12:53;;;;;;;21.73;12.80;;;;;;;;;;5068891;28;20225;-73
2022/04/30 06:15:20;;;;;;;24.53;13.00;;;;;;;;;;5029902;28;21256;-73
2022/04/30 06:17:47;;;;;;;16.47;9.83;;;;;;;;;;5030145;28;20460;-72
2022/04/30 06:20:14;;;;;;;12.63;7.00;;;;;;;;;;5066423;28;21047;-73
2022/04/30 06:22:41;;;;;;;11.60;5.57;;;;;;;;;;5063400;28;20205;-72
2022/04/30 06:25:08;;;;;;;12.53;7.50;;;;;;;;;;5046446;28;20205;-74
2022/04/30 06:27:35;;;;;;;12.43;7.50;;;;;;;;;;5035740;28;20260;-73
2022/04/30 06:30:03;;;;;;;13.30;7.97;;;;;;;;;;5058753;28;20280;-74
2022/04/30 06:32:30;;;;;;;10.33;7.27;;;;;;;;;;5060621;28;20210;-73
2022/04/30 06:34:57;;;;;;;12.40;7.33;;;;;;;;;;5037922;28;20214;-72
2022/04/30 06:37:26;;;;;;;13.97;7.40;;;;;;;;;;5035186;28;20252;-70
2022/04/30 06:39:53;;;;;;;10.97;6.57;;;;;;;;;;5061227;28;20263;-70
2022/04/30 06:42:21;;;;;;;31.47;7.57;;;;;;;;;;5042324;28;20217;-71
2022/04/30 06:44:48;;;;;;;5.27;3.00;;;;;;;;;;5024611;28;20217;-71
2022/04/30 06:47:15;;;;;;;4.97;1.77;;;;;;;;;;5039837;28;20738;-70
2022/04/30 06:49:42;;;;;;;6.70;1.93;;;;;;;;;;5057766;28;20202;-71
2022/04/30 06:52:10;;;;;;;4.73;1.70;;;;;;;;;;5051808;28;20214;-69
2022/04/30 06:57:25;;;;;;;3.30;2.13;;;;;;;;;;5056586;28;20734;-71
2022/04/30 06:59:54;;;;;;;5.10;1.93;;;;;;;;;;5036721;28;20217;-72
2022/04/30 07:02:22;;;;;;;4.37;2.27;;;;;;;;;;5068094;28;20674;-70
2022/04/30 07:04:51;;;;;;;4.93;2.47;;;;;;;;;;5067258;28;20199;-68
2022/04/30 07:07:19;;;;;;;4.00;2.10;;;;;;;;;;5068877;28;20194;-69
2022/04/30 07:09:46;;;;;;;5.70;2.07;;;;;;;;;;5060034;28;20285;-69
2022/04/30 07:12:14;;;;;;;5.40;1.90;;;;;;;;;;5074871;28;20243;-68
2022/04/30 07:14:41;;;;;;;3.80;1.80;;;;;;;;;;5065628;28;20256;-69
2022/04/30 07:17:09;;;;;;;5.43;2.00;;;;;;;;;;5067906;28;20617;-72
2022/04/30 07:19:36;;;;;;;5.23;2.10;;;;;;;;;;5049145;28;20193;-72
2022/04/30 07:22:03;;;;;;;6.00;2.80;;;;;;;;;;5032924;28;20669;-72
2022/04/30 07:24:31;;;;;;;6.17;3.40;;;;;;;;;;5061508;28;20205;-72
2022/04/30 07:27:01;;;;;;;5.90;2.40;;;;;;;;;;5068196;28;20186;-72
2022/04/30 07:29:28;;;;;;;11.63;5.10;;;;;;;;;;5067930;28;20186;-72
2022/04/30 07:31:55;;;;;;;5.03;3.07;;;;;;;;;;5049653;28;20218;-72
2022/04/30 07:34:23;;;;;;;4.10;2.07;;;;;;;;;;5067975;28;20205;-72
2022/04/30 07:36:50;;;;;;;3.93;1.90;;;;;;;;;;5068546;28;20186;-72
2022/04/30 07:39:17;;;;;;;4.00;2.30;;;;;;;;;;5067918;28;20236;-72
2022/04/30 07:41:49;;;;;;;5.30;2.33;;;;;;;;;;5044371;28;20187;-72
2022/04/30 07:44:16;;;;;;;4.33;2.17;;;;;;;;;;5048018;28;20187;-72
2022/04/30 07:46:43;;;;;;;3.80;2.10;;;;;;;;;;5058360;28;20237;-72
2022/04/30 07:49:10;;;;;;;5.33;2.03;;;;;;;;;;5066556;28;20716;-72
2022/04/30 07:51:53;;;;;;;4.10;2.43;;;;;;;;;;5050353;28;20310;-73
2022/04/30 07:54:20;;;;;;;3.23;2.30;;;;;;;;;;5068011;28;20181;-72
2022/04/30 07:56:47;;;;;;;4.73;2.40;;;;;;;;;;5067795;28;20212;-71
2022/04/30 07:59:15;;;;;;;4.83;2.50;;;;;;;;;;5038682;28;20241;-72
2022/04/30 08:01:45;;;;;;;3.83;2.63;;;;;;;;;;5020264;28;20308;-72
2022/04/30 08:04:12;;;;;;;4.27;2.43;;;;;;;;;;5050387;28;20178;-72
2022/04/30 08:06:39;;;;;;;4.20;2.77;;;;;;;;;;5049059;28;20243;-70
2022/04/30 08:09:07;;;;;;;8.87;3.90;;;;;;;;;;5065725;28;20194;-69
2022/04/30 08:11:34;;;;;;;4.03;2.43;;;;;;;;;;5065136;28;20236;-70
2022/04/30 08:14:01;;;;;;;4.30;2.40;;;;;;;;;;5067527;28;20240;-69
2022/04/30 08:16:28;;;;;;;4.33;2.50;;;;;;;;;;5049935;28;20190;-68
2022/04/30 08:18:55;;;;;;;4.23;2.30;;;;;;;;;;5067115;28;20194;-68
2022/04/30 08:21:22;;;;;;;3.60;2.00;;;;;;;;;;5049632;28;20226;-70
2022/04/30 08:39:50;;;;;;;3.87;1.80;;;;;;;;;;5037605;28;20170;-59
2022/04/30 08:42:17;;;;;;;2.47;1.80;;;;;;;;;;5048481;28;20270;-59
2022/04/30 08:44:44;;;;;;;2.63;1.80;;;;;;;;;;5025650;28;20207;-59
2022/04/30 08:47:11;;;;;;;3.87;1.77;;;;;;;;;;5012757;28;20570;-64
2022/04/30 08:49:39;;;;;;;4.43;2.13;;;;;;;;;;5030880;28;20270;-64
2022/04/30 08:52:06;;;;;;;5.30;1.80;;;;;;;;;;5030596;28;20211;-64
2022/04/30 08:54:33;;;;;;;3.80;1.50;;;;;;;;;;5030265;28;20923;-63
2022/04/30 08:57:00;;;;;;;2.40;1.80;;;;;;;;;;5030308;28;20187;-64
2022/04/30 08:59:27;;;;;;;2.40;1.67;;;;;;;;;;5030192;28;20558;-64
2022/04/30 09:01:55;;;;;;;2.53;1.70;;;;;;;;;;5012873;28;20278;-64
2022/04/30 09:04:22;;;;;;;2.90;1.30;;;;;;;;;;5020493;28;20207;-64
2022/04/30 09:06:50;;;;;;;3.20;1.27;;;;;;;;;;5030220;28;20207;-64
2022/04/30 09:09:23;;;;;;;2.57;1.40;;;;;;;;;;5030241;28;20678;-64
2022/04/30 09:11:51;;;;;;;2.40;1.60;;;;;;;;;;5030270;28;20693;-64
2022/04/30 09:14:24;;;;;;;2.80;1.63;;;;;;;;;;5029905;28;20184;-64
2022/04/30 09:17:00;;;;;;;2.67;1.43;;;;;;;;;;5030097;28;20246;-64
2022/04/30 09:19:27;;;;;;;1.60;1.20;;;;;;;;;;5030256;28;20274;-63
2022/04/30 09:21:55;;;;;;;1.60;1.13;;;;;;;;;;5020420;28;20249;-64
2022/04/30 09:24:22;;;;;;;3.40;1.20;;;;;;;;;;5006767;28;20228;-64
2022/04/30 09:26:49;;;;;;;2.33;1.60;;;;;;;;;;5010947;28;20585;-64
2022/04/30 09:29:22;;;;;;;3.00;1.17;;;;;;;;;;5023310;28;20682;-64
2022/04/30 09:31:52;;;;;;;1.60;1.03;;;;;;;;;;5025095;28;20203;-64
2022/04/30 09:39:51;;;;;;;2.50;1.43;;;;;;;;;;5029725;28;20191;-64
2022/04/30 09:42:18;;;;;;;1.60;1.20;;;;;;;;;;5030083;28;20194;-64
2022/04/30 09:44:46;;;;;;;3.23;1.33;;;;;;;;;;5028272;28;20187;-64
2022/04/30 09:47:13;;;;;;;2.60;1.50;;;;;;;;;;5029047;28;20257;-64
2022/04/30 09:55:11;;;;;;;3.43;1.40;;;;;;;;;;5017838;28;20196;-64
2022/04/30 09:57:38;;;;;;;2.10;1.40;;;;;;;;;;5023489;28;20245;-64
2022/04/30 10:00:08;;;;;;;3.03;1.40;;;;;;;;;;5029181;28;20192;-64
2022/04/30 10:02:38;;;;;;;3.07;1.70;;;;;;;;;;5029161;28;20243;-65
2022/04/30 10:05:06;;;;;;;3.53;1.50;;;;;;;;;;5029076;28;20183;-64
2022/04/30 10:07:46;;;;;;;3.47;1.37;;;;;;;;;;5028677;28;20214;-64
2022/04/30 10:10:21;;;;;;;2.03;1.50;;;;;;;;;;5028196;28;20208;-64
2022/04/30 10:12:50;;;;;;;2.40;1.40;;;;;;;;;;5017863;28;20225;-64
2022/04/30 10:15:20;;;;;;;1.97;1.33;;;;;;;;;;5029029;28;20495;-64
2022/04/30 10:17:52;;;;;;;3.23;1.40;;;;;;;;;;5029000;28;20240;-64
2022/04/30 10:20:35;;;;;;;1.57;1.40;;;;;;;;;;5008572;28;20314;-64
2022/04/30 10:23:05;;;;;;;1.50;1.03;;;;;;;;;;5029096;28;20326;-64
2022/04/30 10:25:42;;;;;;;2.73;1.37;;;;;;;;;;5028048;28;20231;-64
2022/04/30 10:28:15;;;;;;;4.30;1.67;;;;;;;;;;5028956;28;20175;-65
2022/04/30 10:30:43;;;;;;;3.57;1.40;;;;;;;;;;5029075;28;20211;-64
2022/04/30 10:33:10;;;;;;;2.30;1.33;;;;;;;;;;5028736;28;20195;-64
2022/04/30 10:35:40;;;;;;;3.77;1.70;;;;;;;;;;5018867;28;20243;-64
2022/04/30 10:38:11;;;;;;;2.63;1.30;;;;;;;;;;5027827;28;20198;-65
2022/04/30 10:40:56;;;;;;;2.03;1.20;;;;;;;;;;5026739;28;20184;-65
2022/04/30 10:43:34;;;;;;;1.73;1.20;;;;;;;;;;5028993;28;20199;-64
2022/04/30 10:46:02;;;;;;;3.13;1.30;;;;;;;;;;5027906;28;20200;-65
2022/04/30 10:48:29;;;;;;;2.20;1.53;;;;;;;;;;5027294;28;20250;-65
2022/04/30 10:51:05;;;;;;;1.53;1.20;;;;;;;;;;5028190;28;20242;-65
2022/04/30 10:53:32;;;;;;;2.13;0.93;;;;;;;;;;5027050;28;20609;-65
2022/04/30 10:56:02;;;;;;;2.90;1.20;;;;;;;;;;5026349;28;20180;-65
2022/04/30 10:58:30;;;;;;;3.70;1.90;;;;;;;;;;5028619;28;20223;-65
2022/04/30 11:00:58;;;;;;;3.03;1.30;;;;;;;;;;5011122;28;20631;-65
2022/04/30 11:03:25;;;;;;;2.97;1.30;;;;;;;;;;5028146;28;20231;-65
2022/04/30 11:05:52;;;;;;;3.33;1.20;;;;;;;;;;5028156;28;20194;-65
2022/04/30 11:08:19;;;;;;;6.10;1.00;;;;;;;;;;5028441;28;20246;-65
2022/04/30 11:10:51;;;;;;;3.70;0.93;;;;;;;;;;5010331;28;20554;-65
2022/04/30 11:13:18;;;;;;;2.10;1.10;;;;;;;;;;5025884;28;20191;-65
2022/04/30 11:15:45;;;;;;;2.93;0.90;;;;;;;;;;5027816;28;20243;-63
2022/04/30 11:18:13;;;;;;;1.80;0.83;;;;;;;;;;5028067;28;20274;-63
2022/04/30 11:20:40;;;;;;;3.87;0.93;;;;;;;;;;5027559;28;20590;-63
2022/04/30 11:23:07;;;;;;;4.00;0.90;;;;;;;;;;5027598;28;20670;-64
2022/04/30 11:25:36;;;;;;;1.17;0.90;;;;;;;;;;5027968;28;20262;-63
2022/04/30 11:28:06;;;;;;;1.63;1.00;;;;;;;;;;5027785;28;20214;-62
2022/04/30 11:30:39;;;;;;;1.73;0.90;;;;;;;;;;5027216;28;20233;-63
2022/04/30 11:33:06;;;;;;;2.07;0.90;;;;;;;;;;5027995;28;20184;-63
2022/04/30 11:35:37;;;;;;;1.87;0.90;;;;;;;;;;5027445;28;20195;-64
2022/04/30 11:38:08;;;;;;;2.37;1.10;;;;;;;;;;5027841;28;21035;-63
2022/04/30 11:40:34;;;;;;;2.00;0.80;;;;;;;;;;5027715;28;20195;-64
2022/04/30 11:43:02;;;;;;;1.93;1.00;;;;;;;;;;5027537;28;20215;-63
2022/04/30 11:45:30;;;;;;;1.40;0.80;;;;;;;;;;5026223;28;20187;-64
2022/04/30 11:47:57;;;;;;;0.97;0.70;;;;;;;;;;5016070;28;20799;-65
2022/04/30 11:50:24;;;;;;;3.20;1.00;;;;;;;;;;5026203;28;20187;-64
2022/04/30 11:52:51;;;;;;;5.80;2.00;;;;;;;;;;5026002;28;20226;-64
2022/04/30 11:55:20;;;;;;;1.93;1.00;;;;;;;;;;5015380;28;20659;-63
2022/04/30 11:57:47;;;;;;;2.77;0.87;;;;;;;;;;5023909;28;20201;-64
2022/04/30 12:00:14;;;;;;;2.33;0.90;;;;;;;;;;5015275;28;20183;-64
2022/04/30 12:02:41;;;;;;;2.97;0.90;;;;;;;;;;5029875;28;20226;-64
2022/04/30 12:05:09;;;;;;;2.00;1.03;;;;;;;;;;5029469;28;20187;-64
2022/04/30 12:07:43;;;;;;;4.93;0.87;;;;;;;;;;5031591;28;20253;-63
2022/04/30 12:10:29;;;;;;;2.40;0.90;;;;;;;;;;5010675;28;20645;-63
2022/04/30 12:12:56;;;;;;;2.53;0.83;;;;;;;;;;5019795;28;20211;-65
2022/04/30 12:15:23;;;;;;;1.90;0.97;;;;;;;;;;5024439;28;20187;-65
2022/04/30 12:27:03;;;;;;;2.03;0.90;;;;;;;;;;5020285;28;20225;-64
2022/04/30 12:29:30;;;;;;;2.07;0.70;;;;;;;;;;5029475;28;20198;-65
2022/04/30 12:32:18;;;;;;;1.43;0.83;;;;;;;;;;5027257;28;20203;-65
2022/04/30 12:34:51;;;;;;;2.30;1.00;;;;;;;;;;5027477;28;20191;-63
2022/04/30 12:37:18;;;;;;;2.70;0.90;;;;;;;;;;5027779;28;20257;-63
2022/04/30 12:39:44;;;;;;;1.17;0.77;;;;;;;;;;5025262;28;20245;-62
2022/04/30 12:42:12;;;;;;;1.80;0.53;;;;;;;;;;5028115;28;20278;-62
2022/04/30 12:44:39;;;;;;;6.63;1.20;;;;;;;;;;5027207;28;20975;-63
2022/04/30 12:47:06;;;;;;;3.87;0.80;;;;;;;;;;5002582;28;20226;-63
2022/04/30 12:49:33;;;;;;;6.70;1.07;;;;;;;;;;5027588;28;20192;-61
2022/04/30 12:52:00;;;;;;;14.00;1.33;;;;;;;;;;5027835;28;20277;-62
2022/04/30 12:54:27;;;;;;;2.50;0.87;;;;;;;;;;5028437;28;20203;-63
2022/04/30 12:56:59;;;;;;;12.60;1.50;;;;;;;;;;5030460;28;20974;-63
2022/04/30 12:59:26;;;;;;;1.17;0.80;;;;;;;;;;5030354;28;20199;-62
2022/04/30 13:01:55;;;;;;;1.50;0.90;;;;;;;;;;5030803;28;20203;-62
2022/04/30 13:04:22;;;;;;;1.60;0.80;;;;;;;;;;5030630;28;20219;-62
2022/04/30 13:06:49;;;;;;;1.50;0.87;;;;;;;;;;5030411;28;20202;-62
2022/04/30 13:15:23;;;;;;;1.53;0.70;;;;;;;;;;5029744;28;20179;-68
2022/04/30 13:17:49;;;;;;;1.17;0.73;;;;;;;;;;5030084;28;20585;-66
2022/04/30 13:20:16;;;;;;;1.83;1.00;;;;;;;;;;5030013;28;20192;-67
2022/04/30 13:22:43;;;;;;;1.33;0.70;;;;;;;;;;5030539;28;20184;-66
2022/04/30 13:25:11;;;;;;;1.20;0.80;;;;;;;;;;5012157;28;20744;-67
2022/04/30 13:27:40;;;;;;;3.43;0.97;;;;;;;;;;5030047;28;20593;-68
2022/04/30 13:30:10;;;;;;;2.13;0.80;;;;;;;;;;5029867;28;20271;-66
2022/04/30 13:32:56;;;;;;;2.27;0.93;;;;;;;;;;5021028;28;20253;-66
2022/04/30 13:35:22;;;;;;;1.50;0.70;;;;;;;;;;5029582;28;20180;-65
2022/04/30 13:37:51;;;;;;;3.10;0.87;;;;;;;;;;5029647;28;20187;-65
2022/04/30 13:40:18;;;;;;;2.20;0.90;;;;;;;;;;5017834;28;20630;-67
2022/04/30 13:42:45;;;;;;;1.47;0.90;;;;;;;;;;5029676;28;20198;-66
2022/04/30 13:45:12;;;;;;;1.43;0.70;;;;;;;;;;5029590;28;20271;-65
2022/04/30 13:47:41;;;;;;;1.90;1.07;;;;;;;;;;5029802;28;20306;-61
2022/04/30 13:50:10;;;;;;;2.60;0.93;;;;;;;;;;5018510;28;20239;-63
2022/04/30 13:52:38;;;;;;;2.50;0.60;;;;;;;;;;5023219;28;20243;-62
2022/04/30 13:55:07;;;;;;;2.00;0.77;;;;;;;;;;5029472;28;20191;-63
2022/04/30 13:57:36;;;;;;;1.00;0.70;;;;;;;;;;5029354;28;20196;-63
2022/04/30 14:00:05;;;;;;;2.37;0.90;;;;;;;;;;5011798;28;20191;-62
2022/04/30 14:02:32;;;;;;;2.93;0.90;;;;;;;;;;5012142;28;20200;-63
2022/04/30 14:04:59;;;;;;;1.80;1.00;;;;;;;;;;5029332;28;20202;-63
2022/04/30 14:07:44;;;;;;;2.20;0.93;;;;;;;;;;5028578;28;20191;-63
2022/04/30 14:10:11;;;;;;;3.63;1.10;;;;;;;;;;5011727;28;20195;-61
2022/04/30 14:12:45;;;;;;;2.20;0.90;;;;;;;;;;5023384;28;20215;-62
2022/04/30 14:15:13;;;;;;;3.73;1.00;;;;;;;;;;5028379;28;20192;-63
2022/04/30 14:20:26;;;;;;;1.40;1.03;;;;;;;;;;5008858;28;20589;-63
2022/04/30 14:22:53;;;;;;;1.83;1.00;;;;;;;;;;5017724;28;20194;-63
2022/04/30 14:25:22;;;;;;;5.77;1.20;;;;;;;;;;5028920;28;20223;-63
2022/04/30 14:27:49;;;;;;;4.17;1.10;;;;;;;;;;5028936;28;20245;-63
2022/04/30 14:30:19;;;;;;;6.03;1.10;;;;;;;;;;5028949;28;20199;-64
2022/04/30 14:32:48;;;;;;;1.67;0.90;;;;;;;;;;5028616;28;20207;-63
2022/04/30 14:35:15;;;;;;;3.90;0.87;;;;;;;;;;5023251;28;20282;-62
2022/04/30 14:37:42;;;;;;;3.97;1.10;;;;;;;;;;5028953;28;20194;-63
2022/04/30 14:40:09;;;;;;;2.93;0.83;;;;;;;;;;5010868;28;20710;-62
2022/04/30 14:42:39;;;;;;;3.17;1.60;;;;;;;;;;5028062;28;20527;-63
2022/04/30 14:45:23;;;;;;;2.17;1.20;;;;;;;;;;5027656;28;20186;-63
2022/04/30 14:47:50;;;;;;;2.40;1.20;;;;;;;;;;5028384;28;20238;-63
2022/04/30 14:50:17;;;;;;;4.73;1.50;;;;;;;;;;5028075;28;20204;-63
2022/04/30 14:52:44;;;;;;;3.03;1.30;;;;;;;;;;5027581;28;20219;-63
2022/04/30 14:55:11;;;;;;;2.70;1.00;;;;;;;;;;5028327;28;20242;-63
2022/04/30 14:57:37;;;;;;;4.03;1.20;;;;;;;;;;5024865;28;20231;-61
2022/04/30 15:00:05;;;;;;;1.93;1.33;;;;;;;;;;5027960;28;20302;-63
2022/04/30 15:02:32;;;;;;;3.30;1.43;;;;;;;;;;5028373;28;20196;-62
2022/04/30 15:04:59;;;;;;;3.37;1.40;;;;;;;;;;5027912;28;20191;-62
2022/04/30 15:07:45;;;;;;;3.43;1.77;;;;;;;;;;5028320;28;20188;-62
2022/04/30 15:10:12;;;;;;;6.27;2.10;;;;;;;;;;5028332;28;20729;-63
2022/04/30 15:12:39;;;;;;;4.47;1.47;;;;;;;;;;5028045;28;20346;-62
2022/04/30 15:15:06;;;;;;;14.60;2.43;;;;;;;;;;5027895;28;20191;-62
2022/04/30 15:17:33;;;;;;;4.80;2.00;;;;;;;;;;5027860;28;20912;-62
2022/04/30 15:20:00;;;;;;;4.20;2.20;;;;;;;;;;5008050;28;20981;-62
2022/04/30 15:22:26;;;;;;;5.93;2.70;;;;;;;;;;5028283;28;20187;-62
2022/04/30 15:24:54;;;;;;;5.90;2.37;;;;;;;;;;5026849;28;20338;-62
2022/04/30 15:27:21;;;;;;;4.33;2.33;;;;;;;;;;5027961;28;20546;-62
2022/04/30 15:29:48;;;;;;;5.83;2.33;;;;;;;;;;5027714;28;20187;-61
2022/04/30 15:32:16;;;;;;;5.27;2.07;;;;;;;;;;5027354;28;20289;-62
2022/04/30 15:34:43;;;;;;;4.77;1.93;;;;;;;;;;5027832;28;20192;-61
2022/04/30 15:37:09;;;;;;;5.07;1.80;;;;;;;;;;5027632;28;20271;-62
2022/04/30 15:39:36;;;;;;;7.27;2.27;;;;;;;;;;5027368;28;20194;-61
2022/04/30 15:42:03;;;;;;;18.50;3.20;;;;;;;;;;5027401;28;20222;-62
2022/04/30 15:44:30;;;;;;;6.40;2.60;;;;;;;;;;5027634;28;20223;-57
2022/04/30 15:52:30;;;;;;;7.10;2.77;;;;;;;;;;5024518;28;20223;-57
2022/04/30 15:54:57;;;;;;;5.27;2.00;;;;;;;;;;5026633;28;20619;-57
2022/04/30 15:57:25;;;;;;;6.30;2.23;;;;;;;;;;5016493;28;20297;-57
2022/04/30 15:59:53;;;;;;;8.43;2.13;;;;;;;;;;5027587;28;20206;-58
2022/04/30 16:02:21;;;;;;;5.57;2.13;;;;;;;;;;5027355;28;20566;-57
2022/04/30 16:04:48;;;;;;;5.07;1.60;;;;;;;;;;5027744;28;20646;-57
2022/04/30 16:07:15;;;;;;;5.27;1.87;;;;;;;;;;5027675;28;20199;-60
2022/04/30 16:09:42;;;;;;;4.47;1.80;;;;;;;;;;5027436;28;20557;-59
2022/04/30 16:12:11;;;;;;;6.77;3.50;;;;;;;;;;5026992;28;20568;-59
2022/04/30 16:14:38;;;;;;;8.70;2.57;;;;;;;;;;5026786;28;20191;-59
2022/04/30 16:17:06;;;;;;;10.53;3.77;;;;;;;;;;5026546;28;20231;-59
2022/04/30 16:19:33;;;;;;;7.07;2.30;;;;;;;;;;5027745;28;20215;-60
2022/04/30 16:22:00;;;;;;;14.17;5.50;;;;;;;;;;5027152;28;20550;-60
2022/04/30 16:24:27;;;;;;;12.97;3.83;;;;;;;;;;5027183;28;20230;-57
2022/04/30 16:26:54;;;;;;;5.87;2.10;;;;;;;;;;5027047;28;20230;-60
2022/04/30 16:29:21;;;;;;;6.13;2.40;;;;;;;;;;5008608;28;20273;-59
2022/04/30 16:31:48;;;;;;;13.70;2.80;;;;;;;;;;5026786;28;20290;-61
2022/04/30 16:34:15;;;;;;;5.90;2.97;;;;;;;;;;5027267;28;20188;-59
2022/04/30 16:36:42;;;;;;;10.90;4.03;;;;;;;;;;5027228;28;20219;-59
2022/04/30 16:39:28;;;;;;;10.07;2.93;;;;;;;;;;5027094;28;20176;-58
2022/04/30 16:41:54;;;;;;;4.73;1.80;;;;;;;;;;5026874;28;20739;-58
2022/04/30 16:44:21;;;;;;;4.07;1.53;;;;;;;;;;5027845;28;20527;-60
2022/04/30 16:46:48;;;;;;;3.70;1.70;;;;;;;;;;5030212;28;20227;-60
2022/04/30 16:49:19;;;;;;;6.57;1.90;;;;;;;;;;5027158;28;21023;-60